createdAt,value
2023-04-01T00:04:49.027Z,82.39
2023-04-01T00:09:52.704Z,82.68
2023-04-01T00:14:55.854Z,83.18
2023-04-01T00:19:59.338Z,82.95
2023-04-01T00:25:03.184Z,82.69
2023-04-01T00:30:07.493Z,83.08
2023-04-01T00:35:12.041Z,83.42
2023-04-01T00:40:47.650Z,83.60
2023-04-01T00:45:51.632Z,83.74
2023-04-01T00:51:12.748Z,83.75
2023-04-01T00:56:28.010Z,83.94
2023-04-01T01:01:33.389Z,84.18
2023-04-01T01:06:49.126Z,84.43
2023-04-01T01:12:38.963Z,84.48
2023-04-01T01:18:05.253Z,84.46
2023-04-01T01:23:23.514Z,84.53
2023-04-01T01:29:13.440Z,84.36
2023-04-01T01:34:34.033Z,84.44
2023-04-01T01:39:38.587Z,84.85
2023-04-01T01:44:46.890Z,85.15
2023-04-01T01:49:53.158Z,85.29
2023-04-01T01:54:59.011Z,85.26
2023-04-01T02:00:15.654Z,85.18
2023-04-01T02:05:25.767Z,85.11
2023-04-01T02:10:35.132Z,85.03
2023-04-01T02:15:47.384Z,85.16
2023-04-01T02:20:52.192Z,85.44
2023-04-01T02:25:56.308Z,85.19
2023-04-01T02:31:03.664Z,85.32
2023-04-01T02:36:13.232Z,85.40
2023-04-01T02:41:16.395Z,85.36
2023-04-01T02:46:19.567Z,85.38
2023-04-01T02:51:22.888Z,85.14
2023-04-01T02:56:27.324Z,85.16
2023-04-01T03:01:30.460Z,84.97
2023-04-01T03:06:33.744Z,85.03
2023-04-01T03:11:36.854Z,85.22
2023-04-01T03:16:40.023Z,85.90
2023-04-01T03:21:43.267Z,86.00
2023-04-01T03:26:46.629Z,86.32
2023-04-01T03:31:49.886Z,86.39
2023-04-01T03:36:53.919Z,86.66
2023-04-01T03:41:56.930Z,86.98
2023-04-01T03:47:00.574Z,87.10
2023-04-01T03:52:04.054Z,87.40
2023-04-01T03:57:07.506Z,87.69
2023-04-01T04:02:11.028Z,88.04
2023-04-01T04:07:14.651Z,88.45
2023-04-01T04:12:17.710Z,88.27
2023-04-01T04:17:20.724Z,88.21
2023-04-01T04:22:24.028Z,88.40
2023-04-01T04:27:27.132Z,88.59
2023-04-01T04:32:31.910Z,88.61
2023-04-01T04:37:34.986Z,88.88
2023-04-01T04:42:37.993Z,89.39
2023-04-01T04:47:41.313Z,89.47
2023-04-01T04:52:44.453Z,89.25
2023-04-01T04:57:47.612Z,89.06
2023-04-01T05:02:50.773Z,88.86
2023-04-01T05:07:54.026Z,89.01
2023-04-01T05:12:57.268Z,89.04
2023-04-01T05:18:00.411Z,88.82
2023-04-01T05:23:03.997Z,88.40
2023-04-01T05:28:07.076Z,88.29
2023-04-01T05:33:12.302Z,88.10
2023-04-01T05:38:16.046Z,87.99
2023-04-01T05:43:19.063Z,87.84
2023-04-01T05:48:22.464Z,87.58
2023-04-01T05:53:25.571Z,87.29
2023-04-01T05:58:28.685Z,87.04
2023-04-01T06:03:32.259Z,86.71
2023-04-01T06:08:35.523Z,86.74
2023-04-01T06:13:54.131Z,86.76
2023-04-01T06:19:18.580Z,86.73
2023-04-01T06:24:43.502Z,86.76
2023-04-01T06:30:23.675Z,86.89
2023-04-01T06:35:39.959Z,87.04
2023-04-01T06:41:21.502Z,87.45
2023-04-01T06:47:00.416Z,87.59
2023-04-01T06:52:48.828Z,87.60
2023-04-01T06:57:56.629Z,87.69
2023-04-01T07:03:30.433Z,87.83
2023-04-01T07:08:41.682Z,87.97
2023-04-01T07:13:56.020Z,88.10
2023-04-01T07:19:43.260Z,88.08
2023-04-01T07:24:47.854Z,88.11
2023-04-01T07:29:50.911Z,87.79
2023-04-01T07:35:24.227Z,87.87
2023-04-01T07:40:51.628Z,87.90
2023-04-01T07:46:36.517Z,87.71
2023-04-01T07:51:44.711Z,87.68
2023-04-01T07:57:21.961Z,87.53
2023-04-01T08:02:49.663Z,87.59
2023-04-01T08:08:20.990Z,87.76
2023-04-01T08:14:01.453Z,87.86
2023-04-01T08:20:01.400Z,88.06
2023-04-01T08:25:15.198Z,87.86
2023-04-01T08:30:28.310Z,87.71
2023-04-01T08:35:45.227Z,87.52
2023-04-01T08:41:51.311Z,87.40
2023-04-01T08:47:42.308Z,87.28
2023-04-01T08:53:13.822Z,86.60
2023-04-01T08:58:47.937Z,85.98
2023-04-01T09:04:18.133Z,85.15
2023-04-01T09:09:49.342Z,84.73
2023-04-01T09:15:42.169Z,84.14
2023-04-01T09:21:03.977Z,83.76
2023-04-01T09:26:25.206Z,83.39
2023-04-01T09:31:46.349Z,83.35
2023-04-01T09:37:08.097Z,83.42
2023-04-01T09:42:14.153Z,83.20
2023-04-01T09:47:48.318Z,83.44
2023-04-01T09:53:15.880Z,84.01
2023-04-01T09:58:43.709Z,84.14
2023-04-01T10:04:31.392Z,84.41
2023-04-01T10:10:24.266Z,84.66
2023-04-01T10:15:45.898Z,84.71
2023-04-01T10:21:16.155Z,84.23
2023-04-01T10:27:06.869Z,83.82
2023-04-01T10:32:47.180Z,83.61
2023-04-01T10:38:41.867Z,83.68
2023-04-01T10:44:09.442Z,83.39
2023-04-01T10:49:33.845Z,83.21
2023-04-01T10:55:05.848Z,83.36
2023-04-01T11:01:00.427Z,83.39
2023-04-01T11:06:50.663Z,83.69
2023-04-01T11:12:41.787Z,83.59
2023-04-01T11:18:29.437Z,82.96
2023-04-01T11:24:06.243Z,82.65
2023-04-01T11:29:58.866Z,82.60
2023-04-01T11:35:44.135Z,82.40
2023-04-01T11:41:12.103Z,81.79
2023-04-01T11:46:34.930Z,81.57
2023-04-01T11:52:02.533Z,82.07
2023-04-01T11:57:54.018Z,82.63
2023-04-01T12:03:38.236Z,82.79
2023-04-01T12:09:21.191Z,82.36
2023-04-01T12:14:48.878Z,82.24
2023-04-01T12:19:58.224Z,82.61
2023-04-01T12:25:40.052Z,82.63
2023-04-01T12:31:16.728Z,82.44
2023-04-01T12:36:53.425Z,82.63
2023-04-01T12:42:23.872Z,81.89
2023-04-01T12:47:49.311Z,81.82
2023-04-01T12:53:30.707Z,81.64
2023-04-01T12:59:08.741Z,82.03
2023-04-01T13:04:46.461Z,82.04
2023-04-01T13:10:15.052Z,82.09
2023-04-01T13:15:57.227Z,82.35
2023-04-01T13:21:28.540Z,82.54
2023-04-01T13:26:55.117Z,82.49
2023-04-01T13:32:13.571Z,82.69
2023-04-01T13:37:50.885Z,82.57
2023-04-01T13:43:41.136Z,82.83
2023-04-01T13:49:08.977Z,83.54
2023-04-01T13:54:55.590Z,84.81
2023-04-01T14:00:12.527Z,85.53
2023-04-01T14:05:46.456Z,85.85
2023-04-01T14:11:21.341Z,86.18
2023-04-01T14:16:53.085Z,86.32
2023-04-01T14:22:33.881Z,86.55
2023-04-01T14:28:11.812Z,86.94
2023-04-01T14:33:51.969Z,87.65
2023-04-01T14:39:29.177Z,88.36
2023-04-01T14:45:07.516Z,88.75
2023-04-01T14:50:19.491Z,88.97
2023-04-01T14:55:39.629Z,89.05
2023-04-01T15:01:04.251Z,89.28
2023-04-01T15:07:08.586Z,89.28
2023-04-01T15:13:19.901Z,89.39
2023-04-01T15:19:14.708Z,89.32
2023-04-01T15:24:28.202Z,89.21
2023-04-01T15:30:06.083Z,89.29
2023-04-01T15:35:27.320Z,89.43
2023-04-01T15:41:05.249Z,89.58
2023-04-01T15:46:49.025Z,89.72
2023-04-01T15:52:16.068Z,89.71
2023-04-01T15:57:53.595Z,89.61
2023-04-01T16:03:53.994Z,89.82
2023-04-01T16:09:17.814Z,89.64
2023-04-01T16:15:01.266Z,89.65
2023-04-01T16:20:19.521Z,89.72
2023-04-01T16:25:48.521Z,89.83
2023-04-01T16:31:28.010Z,89.64
2023-04-01T16:36:52.826Z,89.57
2023-04-01T16:42:26.135Z,89.68
2023-04-01T16:47:47.005Z,89.88
2023-04-01T16:53:12.678Z,90.07
2023-04-01T16:58:28.554Z,89.93
2023-04-01T17:03:45.443Z,89.86
2023-04-01T17:09:32.776Z,89.56
2023-04-01T17:14:59.528Z,89.32
2023-04-01T17:20:28.853Z,89.22
2023-04-01T17:26:35.140Z,89.32
2023-04-01T17:31:47.284Z,89.18
2023-04-01T17:37:24.685Z,89.12
2023-04-01T17:43:03.208Z,89.22
2023-04-01T17:48:34.584Z,89.48
2023-04-01T17:54:06.309Z,89.64
2023-04-01T17:59:19.797Z,89.65
2023-04-01T18:05:08.072Z,89.93
2023-04-01T18:10:41.424Z,90.09
2023-04-01T18:16:03.970Z,89.97
2023-04-01T18:21:25.687Z,89.89
2023-04-01T18:26:38.538Z,89.84
2023-04-01T18:31:54.736Z,89.89
2023-04-01T18:37:20.793Z,89.85
2023-04-01T18:42:49.078Z,90.00
2023-04-01T18:48:06.355Z,90.13
2023-04-01T18:53:37.787Z,90.01
2023-04-01T18:58:59.423Z,89.79
2023-04-01T19:04:24.252Z,89.63
2023-04-01T19:09:47.331Z,89.68
2023-04-01T19:15:24.207Z,89.40
2023-04-01T19:20:58.506Z,89.46
2023-04-01T19:26:15.032Z,89.42
2023-04-01T19:31:41.613Z,89.33
2023-04-01T19:37:03.573Z,89.13
2023-04-01T19:42:28.813Z,88.71
2023-04-01T19:47:37.850Z,88.58
2023-04-01T19:52:44.846Z,88.74
2023-04-01T19:58:02.079Z,88.68
2023-04-01T20:03:27.824Z,88.65
2023-04-01T20:09:05.124Z,88.75
2023-04-01T20:14:37.937Z,88.88
2023-04-01T20:19:53.642Z,88.89
2023-04-01T20:25:11.446Z,89.32
2023-04-01T20:30:38.346Z,89.25
2023-04-01T20:36:13.863Z,89.31
2023-04-01T20:41:46.722Z,88.99
2023-04-01T20:47:03.983Z,88.88
2023-04-01T20:52:50.897Z,88.82
2023-04-01T20:58:12.458Z,88.76
2023-04-01T21:04:00.164Z,89.04
2023-04-01T21:09:47.215Z,89.22
2023-04-01T21:15:21.592Z,88.97
2023-04-01T21:20:37.324Z,88.99
2023-04-01T21:26:26.671Z,88.68
2023-04-01T21:32:25.405Z,88.81
2023-04-01T21:38:05.633Z,88.94
2023-04-01T21:43:39.787Z,88.86
2023-04-01T21:49:06.236Z,88.80
2023-04-01T21:54:36.881Z,88.87
2023-04-01T22:00:17.589Z,88.68
2023-04-01T22:05:38.094Z,88.81
2023-04-01T22:11:18.155Z,88.94
2023-04-01T22:16:55.861Z,88.93
2023-04-01T22:22:47.298Z,89.09
2023-04-01T22:28:07.998Z,89.21
2023-04-01T22:33:34.482Z,89.19
2023-04-01T22:39:15.585Z,89.16
2023-04-01T22:44:38.662Z,89.21
2023-04-01T22:50:26.606Z,89.38
2023-04-01T22:55:35.909Z,89.33
2023-04-01T23:00:55.983Z,89.14
2023-04-01T23:06:03.051Z,89.20
2023-04-01T23:11:11.538Z,89.04
2023-04-01T23:16:15.600Z,89.10
2023-04-01T23:21:44.594Z,89.18
2023-04-01T23:27:36.263Z,89.13
2023-04-01T23:32:39.341Z,88.95
2023-04-01T23:37:42.551Z,88.71
2023-04-01T23:42:45.817Z,88.60
2023-04-01T23:47:51.665Z,88.56
2023-04-01T23:53:05.021Z,88.46
2023-04-01T23:58:08.476Z,88.54
